sensor_id;sensor_type;location;lat;lon;timestamp;P1;durP1;ratioP1;P2;durP2;ratioP2
5754;SDS011;2902;42.130;24.732;2023-07-13T00:02:21;10.93;;;9.93;;
5754;SDS011;2902;42.130;24.732;2023-07-13T00:04:48;10.40;;;9.30;;
5754;SDS011;2902;42.130;24.732;2023-07-13T00:07:15;5.80;;;4.60;;
5754;SDS011;2902;42.130;24.732;2023-07-13T00:09:46;6.40;;;4.57;;
5754;SDS011;2902;42.130;24.732;2023-07-13T00:12:23;5.57;;;5.17;;
5754;SDS011;2902;42.130;24.732;2023-07-13T00:14:52;7.17;;;6.57;;
5754;SDS011;2902;42.130;24.732;2023-07-13T00:17:19;7.90;;;7.13;;
5754;SDS011;2902;42.130;24.732;2023-07-13T00:19:46;8.10;;;7.43;;
5754;SDS011;2902;42.130;24.732;2023-07-13T00:22:13;7.40;;;6.83;;
5754;SDS011;2902;42.130;24.732;2023-07-13T00:24:39;9.53;;;6.87;;
5754;SDS011;2902;42.130;24.732;2023-07-13T00:27:08;10.57;;;8.57;;
5754;SDS011;2902;42.130;24.732;2023-07-13T00:29:35;10.87;;;7.63;;
5754;SDS011;2902;42.130;24.732;2023-07-13T00:32:03;8.73;;;7.97;;
5754;SDS011;2902;42.130;24.732;2023-07-13T00:34:30;10.83;;;9.33;;
5754;SDS011;2902;42.130;24.732;2023-07-13T00:36:57;7.03;;;6.60;;
5754;SDS011;2902;42.130;24.732;2023-07-13T00:39:24;9.67;;;8.73;;
5754;SDS011;2902;42.130;24.732;2023-07-13T00:41:51;9.47;;;8.33;;
5754;SDS011;2902;42.130;24.732;2023-07-13T00:44:19;8.60;;;8.00;;
5754;SDS011;2902;42.130;24.732;2023-07-13T00:46:48;7.57;;;6.97;;
5754;SDS011;2902;42.130;24.732;2023-07-13T00:49:16;9.10;;;8.27;;
5754;SDS011;2902;42.130;24.732;2023-07-13T00:51:47;9.10;;;8.40;;
5754;SDS011;2902;42.130;24.732;2023-07-13T00:54:18;8.73;;;7.97;;
5754;SDS011;2902;42.130;24.732;2023-07-13T00:56:49;9.60;;;8.70;;
5754;SDS011;2902;42.130;24.732;2023-07-13T00:59:19;10.70;;;8.67;;
5754;SDS011;2902;42.130;24.732;2023-07-13T01:01:49;9.13;;;8.43;;
5754;SDS011;2902;42.130;24.732;2023-07-13T01:04:16;8.67;;;7.97;;
5754;SDS011;2902;42.130;24.732;2023-07-13T01:06:43;9.63;;;8.80;;
5754;SDS011;2902;42.130;24.732;2023-07-13T01:09:12;8.73;;;8.13;;
5754;SDS011;2902;42.130;24.732;2023-07-13T01:11:41;9.80;;;8.97;;
5754;SDS011;2902;42.130;24.732;2023-07-13T01:14:08;9.73;;;9.03;;
5754;SDS011;2902;42.130;24.732;2023-07-13T01:16:37;7.80;;;7.30;;
5754;SDS011;2902;42.130;24.732;2023-07-13T01:19:07;8.43;;;7.67;;
5754;SDS011;2902;42.130;24.732;2023-07-13T01:21:49;8.23;;;7.43;;
5754;SDS011;2902;42.130;24.732;2023-07-13T01:24:16;8.87;;;7.77;;
5754;SDS011;2902;42.130;24.732;2023-07-13T01:26:43;8.10;;;7.60;;
5754;SDS011;2902;42.130;24.732;2023-07-13T01:29:09;8.97;;;8.07;;
5754;SDS011;2902;42.130;24.732;2023-07-13T01:31:36;8.43;;;7.80;;
5754;SDS011;2902;42.130;24.732;2023-07-13T01:34:03;9.40;;;8.57;;
5754;SDS011;2902;42.130;24.732;2023-07-13T01:36:30;8.80;;;8.00;;
5754;SDS011;2902;42.130;24.732;2023-07-13T01:38:58;10.40;;;8.93;;
5754;SDS011;2902;42.130;24.732;2023-07-13T01:41:24;10.90;;;8.20;;
5754;SDS011;2902;42.130;24.732;2023-07-13T01:43:51;9.93;;;8.50;;
5754;SDS011;2902;42.130;24.732;2023-07-13T01:46:18;9.83;;;8.00;;
5754;SDS011;2902;42.130;24.732;2023-07-13T01:48:44;10.37;;;8.57;;
5754;SDS011;2902;42.130;24.732;2023-07-13T01:51:11;11.00;;;9.07;;
5754;SDS011;2902;42.130;24.732;2023-07-13T01:53:38;9.60;;;8.50;;
5754;SDS011;2902;42.130;24.732;2023-07-13T01:56:06;8.87;;;8.20;;
5754;SDS011;2902;42.130;24.732;2023-07-13T01:58:33;12.70;;;8.67;;
5754;SDS011;2902;42.130;24.732;2023-07-13T02:00:59;11.80;;;8.77;;
5754;SDS011;2902;42.130;24.732;2023-07-13T02:03:26;17.33;;;9.47;;
5754;SDS011;2902;42.130;24.732;2023-07-13T02:05:53;9.20;;;8.50;;
5754;SDS011;2902;42.130;24.732;2023-07-13T02:08:19;9.97;;;8.33;;
5754;SDS011;2902;42.130;24.732;2023-07-13T02:10:46;9.63;;;8.73;;
5754;SDS011;2902;42.130;24.732;2023-07-13T02:13:14;9.40;;;8.57;;
5754;SDS011;2902;42.130;24.732;2023-07-13T02:15:41;8.90;;;8.07;;
5754;SDS011;2902;42.130;24.732;2023-07-13T02:18:07;8.00;;;7.50;;
5754;SDS011;2902;42.130;24.732;2023-07-13T02:20:34;12.57;;;7.80;;
5754;SDS011;2902;42.130;24.732;2023-07-13T02:23:01;15.40;;;7.93;;
5754;SDS011;2902;42.130;24.732;2023-07-13T02:25:28;10.17;;;8.20;;
5754;SDS011;2902;42.130;24.732;2023-07-13T02:27:55;11.33;;;8.90;;
5754;SDS011;2902;42.130;24.732;2023-07-13T02:30:23;10.50;;;7.70;;
5754;SDS011;2902;42.130;24.732;2023-07-13T02:32:50;10.27;;;8.20;;
5754;SDS011;2902;42.130;24.732;2023-07-13T02:35:17;18.90;;;9.03;;
5754;SDS011;2902;42.130;24.732;2023-07-13T02:37:43;9.03;;;8.17;;
5754;SDS011;2902;42.130;24.732;2023-07-13T02:40:10;9.20;;;8.30;;
5754;SDS011;2902;42.130;24.732;2023-07-13T02:42:37;17.87;;;7.97;;
5754;SDS011;2902;42.130;24.732;2023-07-13T02:45:04;11.47;;;8.43;;
5754;SDS011;2902;42.130;24.732;2023-07-13T02:47:33;9.20;;;8.40;;
5754;SDS011;2902;42.130;24.732;2023-07-13T02:50:00;9.10;;;8.53;;
5754;SDS011;2902;42.130;24.732;2023-07-13T02:52:26;15.50;;;8.50;;
5754;SDS011;2902;42.130;24.732;2023-07-13T02:54:53;8.90;;;7.57;;
5754;SDS011;2902;42.130;24.732;2023-07-13T02:57:20;12.27;;;9.13;;
5754;SDS011;2902;42.130;24.732;2023-07-13T02:59:46;15.03;;;7.77;;
5754;SDS011;2902;42.130;24.732;2023-07-13T03:02:13;20.97;;;9.57;;
5754;SDS011;2902;42.130;24.732;2023-07-13T03:04:41;10.23;;;8.40;;
5754;SDS011;2902;42.130;24.732;2023-07-13T03:07:08;12.10;;;8.50;;
5754;SDS011;2902;42.130;24.732;2023-07-13T03:09:35;18.40;;;8.67;;
5754;SDS011;2902;42.130;24.732;2023-07-13T03:12:02;14.77;;;9.17;;
5754;SDS011;2902;42.130;24.732;2023-07-13T03:14:29;9.87;;;7.80;;
5754;SDS011;2902;42.130;24.732;2023-07-13T03:16:56;13.80;;;7.63;;
5754;SDS011;2902;42.130;24.732;2023-07-13T03:19:23;10.80;;;8.53;;
5754;SDS011;2902;42.130;24.732;2023-07-13T03:21:51;15.00;;;9.10;;
5754;SDS011;2902;42.130;24.732;2023-07-13T03:24:18;17.23;;;8.63;;
5754;SDS011;2902;42.130;24.732;2023-07-13T03:26:45;20.53;;;8.93;;
5754;SDS011;2902;42.130;24.732;2023-07-13T03:29:12;21.10;;;9.23;;
5754;SDS011;2902;42.130;24.732;2023-07-13T03:31:39;20.90;;;8.93;;
5754;SDS011;2902;42.130;24.732;2023-07-13T03:34:06;25.10;;;9.13;;
5754;SDS011;2902;42.130;24.732;2023-07-13T03:36:32;22.80;;;8.70;;
5754;SDS011;2902;42.130;24.732;2023-07-13T03:39:02;18.17;;;8.20;;
5754;SDS011;2902;42.130;24.732;2023-07-13T03:41:33;13.20;;;8.53;;
5754;SDS011;2902;42.130;24.732;2023-07-13T03:44:00;23.60;;;8.70;;
5754;SDS011;2902;42.130;24.732;2023-07-13T03:46:27;26.63;;;8.53;;
5754;SDS011;2902;42.130;24.732;2023-07-13T03:48:54;10.57;;;7.67;;
5754;SDS011;2902;42.130;24.732;2023-07-13T03:51:21;13.87;;;7.80;;
5754;SDS011;2902;42.130;24.732;2023-07-13T03:53:48;10.17;;;8.30;;
5754;SDS011;2902;42.130;24.732;2023-07-13T03:56:16;8.20;;;7.13;;
5754;SDS011;2902;42.130;24.732;2023-07-13T03:58:45;8.60;;;7.93;;
5754;SDS011;2902;42.130;24.732;2023-07-13T04:01:13;9.87;;;7.33;;
5754;SDS011;2902;42.130;24.732;2023-07-13T04:03:41;12.00;;;7.53;;
5754;SDS011;2902;42.130;24.732;2023-07-13T04:06:10;26.00;;;8.40;;
5754;SDS011;2902;42.130;24.732;2023-07-13T04:08:46;13.77;;;8.57;;
5754;SDS011;2902;42.130;24.732;2023-07-13T04:11:15;19.10;;;8.73;;
5754;SDS011;2902;42.130;24.732;2023-07-13T04:13:43;18.43;;;8.43;;
5754;SDS011;2902;42.130;24.732;2023-07-13T04:16:09;16.47;;;8.63;;
5754;SDS011;2902;42.130;24.732;2023-07-13T04:18:36;16.77;;;7.47;;
5754;SDS011;2902;42.130;24.732;2023-07-13T04:21:03;19.60;;;8.53;;
5754;SDS011;2902;42.130;24.732;2023-07-13T04:23:30;11.30;;;7.83;;
5754;SDS011;2902;42.130;24.732;2023-07-13T04:25:57;20.37;;;7.50;;
5754;SDS011;2902;42.130;24.732;2023-07-13T04:28:25;23.00;;;7.90;;
5754;SDS011;2902;42.130;24.732;2023-07-13T04:30:52;13.93;;;7.57;;
5754;SDS011;2902;42.130;24.732;2023-07-13T04:33:19;13.87;;;6.87;;
5754;SDS011;2902;42.130;24.732;2023-07-13T04:35:47;9.33;;;7.10;;
5754;SDS011;2902;42.130;24.732;2023-07-13T04:38:14;10.03;;;7.83;;
5754;SDS011;2902;42.130;24.732;2023-07-13T04:40:42;9.65;;;6.13;;
5754;SDS011;2902;42.130;24.732;2023-07-13T04:43:09;7.82;;;6.78;;
5754;SDS011;2902;42.130;24.732;2023-07-13T04:45:37;14.27;;;6.97;;
5754;SDS011;2902;42.130;24.732;2023-07-13T04:48:04;9.70;;;7.75;;
5754;SDS011;2902;42.130;24.732;2023-07-13T04:50:31;9.48;;;7.50;;
5754;SDS011;2902;42.130;24.732;2023-07-13T04:52:58;12.65;;;9.13;;
5754;SDS011;2902;42.130;24.732;2023-07-13T04:55:24;11.93;;;7.68;;
5754;SDS011;2902;42.130;24.732;2023-07-13T04:57:55;13.43;;;8.60;;
5754;SDS011;2902;42.130;24.732;2023-07-13T05:00:24;9.48;;;7.07;;
5754;SDS011;2902;42.130;24.732;2023-07-13T05:02:53;16.02;;;7.60;;
5754;SDS011;2902;42.130;24.732;2023-07-13T05:05:21;14.40;;;7.53;;
5754;SDS011;2902;42.130;24.732;2023-07-13T05:07:47;11.68;;;8.18;;
5754;SDS011;2902;42.130;24.732;2023-07-13T05:10:14;12.10;;;8.02;;
5754;SDS011;2902;42.130;24.732;2023-07-13T05:12:41;35.70;;;10.20;;
5754;SDS011;2902;42.130;24.732;2023-07-13T05:15:09;13.18;;;8.13;;
5754;SDS011;2902;42.130;24.732;2023-07-13T05:17:37;18.85;;;9.05;;
5754;SDS011;2902;42.130;24.732;2023-07-13T05:20:07;22.92;;;9.27;;
5754;SDS011;2902;42.130;24.732;2023-07-13T05:22:35;13.02;;;8.85;;
5754;SDS011;2902;42.130;24.732;2023-07-13T05:25:04;25.17;;;8.48;;
5754;SDS011;2902;42.130;24.732;2023-07-13T05:27:32;9.25;;;8.43;;
5754;SDS011;2902;42.130;24.732;2023-07-13T05:29:59;9.52;;;8.80;;
5754;SDS011;2902;42.130;24.732;2023-07-13T05:32:25;12.43;;;8.45;;
5754;SDS011;2902;42.130;24.732;2023-07-13T05:34:52;11.93;;;9.23;;
5754;SDS011;2902;42.130;24.732;2023-07-13T05:37:20;11.82;;;9.07;;
5754;SDS011;2902;42.130;24.732;2023-07-13T05:39:47;11.55;;;8.63;;
5754;SDS011;2902;42.130;24.732;2023-07-13T05:42:14;12.20;;;9.00;;
5754;SDS011;2902;42.130;24.732;2023-07-13T05:44:40;16.00;;;8.65;;
5754;SDS011;2902;42.130;24.732;2023-07-13T05:47:07;11.90;;;8.55;;
5754;SDS011;2902;42.130;24.732;2023-07-13T05:49:34;16.92;;;8.60;;
5754;SDS011;2902;42.130;24.732;2023-07-13T05:52:01;14.85;;;8.93;;
5754;SDS011;2902;42.130;24.732;2023-07-13T05:54:29;17.98;;;8.65;;
5754;SDS011;2902;42.130;24.732;2023-07-13T05:56:56;10.25;;;8.40;;
5754;SDS011;2902;42.130;24.732;2023-07-13T05:59:22;11.85;;;9.65;;
5754;SDS011;2902;42.130;24.732;2023-07-13T06:01:49;8.32;;;7.53;;
5754;SDS011;2902;42.130;24.732;2023-07-13T06:04:17;9.55;;;7.88;;
5754;SDS011;2902;42.130;24.732;2023-07-13T06:06:44;9.80;;;8.65;;
5754;SDS011;2902;42.130;24.732;2023-07-13T06:09:10;30.25;;;9.55;;
5754;SDS011;2902;42.130;24.732;2023-07-13T06:11:38;11.05;;;8.73;;
5754;SDS011;2902;42.130;24.732;2023-07-13T06:14:05;13.90;;;8.85;;
5754;SDS011;2902;42.130;24.732;2023-07-13T06:16:32;157.20;;;19.17;;
5754;SDS011;2902;42.130;24.732;2023-07-13T06:18:58;12.00;;;8.68;;
5754;SDS011;2902;42.130;24.732;2023-07-13T06:21:25;21.60;;;8.77;;
5754;SDS011;2902;42.130;24.732;2023-07-13T06:23:52;16.20;;;8.38;;
5754;SDS011;2902;42.130;24.732;2023-07-13T06:26:19;14.57;;;8.65;;
5754;SDS011;2902;42.130;24.732;2023-07-13T06:28:48;12.07;;;7.80;;
5754;SDS011;2902;42.130;24.732;2023-07-13T06:31:15;8.90;;;7.28;;
5754;SDS011;2902;42.130;24.732;2023-07-13T06:33:41;11.40;;;7.70;;
5754;SDS011;2902;42.130;24.732;2023-07-13T06:36:09;14.20;;;7.78;;
5754;SDS011;2902;42.130;24.732;2023-07-13T06:38:36;14.35;;;8.82;;
5754;SDS011;2902;42.130;24.732;2023-07-13T06:41:03;14.18;;;8.75;;
5754;SDS011;2902;42.130;24.732;2023-07-13T06:43:30;19.52;;;8.95;;
5754;SDS011;2902;42.130;24.732;2023-07-13T06:45:59;10.57;;;8.90;;
5754;SDS011;2902;42.130;24.732;2023-07-13T06:48:26;15.73;;;9.15;;
5754;SDS011;2902;42.130;24.732;2023-07-13T06:50:53;13.18;;;8.70;;
5754;SDS011;2902;42.130;24.732;2023-07-13T06:53:20;9.23;;;8.23;;
5754;SDS011;2902;42.130;24.732;2023-07-13T06:55:47;9.30;;;8.25;;
5754;SDS011;2902;42.130;24.732;2023-07-13T06:58:14;13.57;;;8.27;;
5754;SDS011;2902;42.130;24.732;2023-07-13T07:00:42;9.70;;;7.68;;
5754;SDS011;2902;42.130;24.732;2023-07-13T07:03:10;10.32;;;8.27;;
5754;SDS011;2902;42.130;24.732;2023-07-13T07:05:37;37.90;;;9.18;;
5754;SDS011;2902;42.130;24.732;2023-07-13T07:08:04;8.27;;;7.40;;
5754;SDS011;2902;42.130;24.732;2023-07-13T07:10:31;8.57;;;7.80;;
5754;SDS011;2902;42.130;24.732;2023-07-13T07:12:58;8.32;;;7.45;;
5754;SDS011;2902;42.130;24.732;2023-07-13T07:15:24;15.68;;;7.22;;
5754;SDS011;2902;42.130;24.732;2023-07-13T07:17:51;29.30;;;10.05;;
5754;SDS011;2902;42.130;24.732;2023-07-13T07:20:20;8.57;;;7.47;;
5754;SDS011;2902;42.130;24.732;2023-07-13T07:22:47;14.32;;;8.80;;
5754;SDS011;2902;42.130;24.732;2023-07-13T07:25:14;9.00;;;8.20;;
5754;SDS011;2902;42.130;24.732;2023-07-13T07:27:41;9.68;;;8.10;;
5754;SDS011;2902;42.130;24.732;2023-07-13T07:30:08;9.93;;;8.98;;
5754;SDS011;2902;42.130;24.732;2023-07-13T07:32:35;9.38;;;8.55;;
5754;SDS011;2902;42.130;24.732;2023-07-13T07:35:02;8.60;;;7.93;;
5754;SDS011;2902;42.130;24.732;2023-07-13T07:37:30;9.07;;;8.45;;
5754;SDS011;2902;42.130;24.732;2023-07-13T07:39:56;10.88;;;7.88;;
5754;SDS011;2902;42.130;24.732;2023-07-13T07:42:24;9.02;;;8.43;;
5754;SDS011;2902;42.130;24.732;2023-07-13T07:44:51;9.60;;;8.68;;
5754;SDS011;2902;42.130;24.732;2023-07-13T07:47:17;9.23;;;8.73;;
5754;SDS011;2902;42.130;24.732;2023-07-13T07:49:44;22.77;;;9.63;;
5754;SDS011;2902;42.130;24.732;2023-07-13T07:52:11;9.20;;;8.70;;
5754;SDS011;2902;42.130;24.732;2023-07-13T07:54:39;8.45;;;7.95;;
5754;SDS011;2902;42.130;24.732;2023-07-13T07:57:06;9.55;;;8.75;;
5754;SDS011;2902;42.130;24.732;2023-07-13T07:59:33;15.20;;;8.32;;
5754;SDS011;2902;42.130;24.732;2023-07-13T08:02:00;8.65;;;7.95;;
5754;SDS011;2902;42.130;24.732;2023-07-13T08:04:27;9.07;;;8.38;;
5754;SDS011;2902;42.130;24.732;2023-07-13T08:06:54;14.48;;;8.05;;
5754;SDS011;2902;42.130;24.732;2023-07-13T08:09:22;11.45;;;7.88;;
5754;SDS011;2902;42.130;24.732;2023-07-13T08:11:50;8.60;;;7.68;;
5754;SDS011;2902;42.130;24.732;2023-07-13T08:14:17;21.25;;;8.80;;
5754;SDS011;2902;42.130;24.732;2023-07-13T08:16:44;12.50;;;7.95;;
5754;SDS011;2902;42.130;24.732;2023-07-13T08:19:11;9.82;;;8.25;;
5754;SDS011;2902;42.130;24.732;2023-07-13T08:21:37;9.63;;;7.63;;
5754;SDS011;2902;42.130;24.732;2023-07-13T08:24:04;13.13;;;8.57;;
5754;SDS011;2902;42.130;24.732;2023-07-13T08:26:31;16.80;;;8.85;;
5754;SDS011;2902;42.130;24.732;2023-07-13T08:28:59;10.10;;;7.88;;
5754;SDS011;2902;42.130;24.732;2023-07-13T08:31:27;8.68;;;6.78;;
5754;SDS011;2902;42.130;24.732;2023-07-13T08:33:53;14.65;;;7.57;;
5754;SDS011;2902;42.130;24.732;2023-07-13T08:36:20;13.38;;;6.90;;
5754;SDS011;2902;42.130;24.732;2023-07-13T08:38:47;8.00;;;7.15;;
5754;SDS011;2902;42.130;24.732;2023-07-13T08:41:14;8.50;;;7.75;;
5754;SDS011;2902;42.130;24.732;2023-07-13T08:43:43;9.57;;;8.00;;
5754;SDS011;2902;42.130;24.732;2023-07-13T08:46:16;12.30;;;7.85;;
5754;SDS011;2902;42.130;24.732;2023-07-13T08:48:47;9.02;;;7.53;;
5754;SDS011;2902;42.130;24.732;2023-07-13T08:51:22;10.45;;;8.05;;
5754;SDS011;2902;42.130;24.732;2023-07-13T08:53:57;8.05;;;7.65;;
5754;SDS011;2902;42.130;24.732;2023-07-13T08:56:27;9.15;;;7.05;;
5754;SDS011;2902;42.130;24.732;2023-07-13T08:58:55;15.75;;;8.43;;
5754;SDS011;2902;42.130;24.732;2023-07-13T09:01:28;13.63;;;9.13;;
5754;SDS011;2902;42.130;24.732;2023-07-13T09:03:59;10.05;;;7.88;;
5754;SDS011;2902;42.130;24.732;2023-07-13T09:06:34;10.57;;;7.88;;
5754;SDS011;2902;42.130;24.732;2023-07-13T09:09:17;11.10;;;7.78;;
5754;SDS011;2902;42.130;24.732;2023-07-13T09:11:56;8.43;;;7.82;;
5754;SDS011;2902;42.130;24.732;2023-07-13T09:14:42;8.30;;;7.38;;
5754;SDS011;2902;42.130;24.732;2023-07-13T09:17:14;11.23;;;8.55;;
5754;SDS011;2902;42.130;24.732;2023-07-13T09:19:43;8.32;;;7.70;;
5754;SDS011;2902;42.130;24.732;2023-07-13T09:22:15;8.95;;;6.80;;
5754;SDS011;2902;42.130;24.732;2023-07-13T09:24:51;10.93;;;6.80;;
5754;SDS011;2902;42.130;24.732;2023-07-13T09:27:22;8.00;;;6.75;;
5754;SDS011;2902;42.130;24.732;2023-07-13T09:29:56;7.82;;;6.47;;
5754;SDS011;2902;42.130;24.732;2023-07-13T09:32:31;7.45;;;6.10;;
5754;SDS011;2902;42.130;24.732;2023-07-13T09:34:59;17.15;;;6.68;;
5754;SDS011;2902;42.130;24.732;2023-07-13T09:37:28;11.50;;;6.30;;
5754;SDS011;2902;42.130;24.732;2023-07-13T09:39:58;8.32;;;6.05;;
5754;SDS011;2902;42.130;24.732;2023-07-13T09:42:30;9.75;;;6.28;;
5754;SDS011;2902;42.130;24.732;2023-07-13T09:44:59;6.20;;;5.68;;
5754;SDS011;2902;42.130;24.732;2023-07-13T09:47:28;13.57;;;6.30;;
5754;SDS011;2902;42.130;24.732;2023-07-13T09:49:57;6.30;;;5.90;;
5754;SDS011;2902;42.130;24.732;2023-07-13T09:52:25;7.50;;;6.20;;
5754;SDS011;2902;42.130;24.732;2023-07-13T09:54:53;7.13;;;6.45;;
5754;SDS011;2902;42.130;24.732;2023-07-13T09:57:24;5.97;;;5.53;;
5754;SDS011;2902;42.130;24.732;2023-07-13T09:59:53;7.97;;;6.30;;
5754;SDS011;2902;42.130;24.732;2023-07-13T10:02:28;6.97;;;5.95;;
5754;SDS011;2902;42.130;24.732;2023-07-13T10:05:00;6.47;;;5.97;;
5754;SDS011;2902;42.130;24.732;2023-07-13T10:07:29;21.42;;;6.65;;
5754;SDS011;2902;42.130;24.732;2023-07-13T10:09:57;6.10;;;5.53;;
5754;SDS011;2902;42.130;24.732;2023-07-13T10:12:28;13.85;;;5.53;;
5754;SDS011;2902;42.130;24.732;2023-07-13T10:14:57;5.65;;;5.25;;
5754;SDS011;2902;42.130;24.732;2023-07-13T10:17:29;5.63;;;4.97;;
5754;SDS011;2902;42.130;24.732;2023-07-13T10:20:01;8.95;;;4.90;;
5754;SDS011;2902;42.130;24.732;2023-07-13T10:22:33;9.32;;;4.90;;
5754;SDS011;2902;42.130;24.732;2023-07-13T10:25:13;9.18;;;5.25;;
5754;SDS011;2902;42.130;24.732;2023-07-13T10:27:43;9.02;;;5.68;;
5754;SDS011;2902;42.130;24.732;2023-07-13T10:30:12;6.25;;;5.43;;
5754;SDS011;2902;42.130;24.732;2023-07-13T10:32:43;5.68;;;5.10;;
5754;SDS011;2902;42.130;24.732;2023-07-13T10:35:12;8.27;;;5.07;;
5754;SDS011;2902;42.130;24.732;2023-07-13T10:37:45;7.55;;;5.18;;
5754;SDS011;2902;42.130;24.732;2023-07-13T10:40:16;5.28;;;4.45;;
5754;SDS011;2902;42.130;24.732;2023-07-13T10:42:46;5.90;;;4.57;;
5754;SDS011;2902;42.130;24.732;2023-07-13T10:45:16;13.50;;;5.88;;
5754;SDS011;2902;42.130;24.732;2023-07-13T10:47:46;9.80;;;5.07;;
5754;SDS011;2902;42.130;24.732;2023-07-13T10:50:17;5.72;;;5.25;;
5754;SDS011;2902;42.130;24.732;2023-07-13T10:52:47;6.80;;;4.70;;
5754;SDS011;2902;42.130;24.732;2023-07-13T10:55:35;8.27;;;4.90;;
5754;SDS011;2902;42.130;24.732;2023-07-13T10:58:11;8.18;;;4.88;;
5754;SDS011;2902;42.130;24.732;2023-07-13T11:00:46;7.05;;;4.40;;
5754;SDS011;2902;42.130;24.732;2023-07-13T11:03:15;5.00;;;4.60;;
5754;SDS011;2902;42.130;24.732;2023-07-13T11:05:49;5.28;;;4.88;;
5754;SDS011;2902;42.130;24.732;2023-07-13T11:08:19;7.72;;;4.80;;
5754;SDS011;2902;42.130;24.732;2023-07-13T11:10:57;5.07;;;4.57;;
5754;SDS011;2902;42.130;24.732;2023-07-13T11:16:34;52.53;;;8.50;;
5754;SDS011;2902;42.130;24.732;2023-07-13T11:19:25;23.02;;;6.18;;
5754;SDS011;2902;42.130;24.732;2023-07-13T11:22:09;12.55;;;4.57;;
5754;SDS011;2902;42.130;24.732;2023-07-13T11:24:48;7.88;;;4.63;;
5754;SDS011;2902;42.130;24.732;2023-07-13T11:27:27;5.80;;;4.15;;
5754;SDS011;2902;42.130;24.732;2023-07-13T11:32:51;8.50;;;4.40;;
5754;SDS011;2902;42.130;24.732;2023-07-13T11:35:31;4.70;;;4.35;;
5754;SDS011;2902;42.130;24.732;2023-07-13T11:38:02;4.65;;;4.25;;
5754;SDS011;2902;42.130;24.732;2023-07-13T11:40:35;9.07;;;4.25;;
5754;SDS011;2902;42.130;24.732;2023-07-13T11:43:02;5.22;;;4.40;;
5754;SDS011;2902;42.130;24.732;2023-07-13T11:45:32;5.30;;;4.30;;
5754;SDS011;2902;42.130;24.732;2023-07-13T11:47:59;4.20;;;3.90;;
5754;SDS011;2902;42.130;24.732;2023-07-13T11:50:26;4.38;;;4.03;;
5754;SDS011;2902;42.130;24.732;2023-07-13T11:52:53;5.07;;;4.40;;
5754;SDS011;2902;42.130;24.732;2023-07-13T11:55:23;10.73;;;4.65;;
5754;SDS011;2902;42.130;24.732;2023-07-13T11:57:51;15.25;;;4.78;;
5754;SDS011;2902;42.130;24.732;2023-07-13T12:00:25;4.45;;;3.65;;
5754;SDS011;2902;42.130;24.732;2023-07-13T12:02:55;4.40;;;4.00;;
5754;SDS011;2902;42.130;24.732;2023-07-13T12:05:24;5.03;;;4.50;;
5754;SDS011;2902;42.130;24.732;2023-07-13T12:07:51;10.75;;;4.10;;
5754;SDS011;2902;42.130;24.732;2023-07-13T12:10:20;7.55;;;3.60;;
5754;SDS011;2902;42.130;24.732;2023-07-13T12:12:50;9.35;;;4.70;;
5754;SDS011;2902;42.130;24.732;2023-07-13T12:15:19;10.75;;;4.78;;
5754;SDS011;2902;42.130;24.732;2023-07-13T12:17:47;9.15;;;4.45;;
5754;SDS011;2902;42.130;24.732;2023-07-13T12:20:19;8.27;;;4.78;;
5754;SDS011;2902;42.130;24.732;2023-07-13T12:22:50;7.22;;;4.43;;
5754;SDS011;2902;42.130;24.732;2023-07-13T12:25:18;6.07;;;4.18;;
5754;SDS011;2902;42.130;24.732;2023-07-13T12:27:46;7.05;;;3.92;;
5754;SDS011;2902;42.130;24.732;2023-07-13T12:30:25;7.93;;;4.40;;
5754;SDS011;2902;42.130;24.732;2023-07-13T12:33:01;8.70;;;4.15;;
5754;SDS011;2902;42.130;24.732;2023-07-13T12:35:38;19.55;;;5.20;;
5754;SDS011;2902;42.130;24.732;2023-07-13T12:38:09;7.05;;;4.75;;
5754;SDS011;2902;42.130;24.732;2023-07-13T12:40:37;11.35;;;4.68;;
5754;SDS011;2902;42.130;24.732;2023-07-13T12:43:09;6.68;;;4.50;;
5754;SDS011;2902;42.130;24.732;2023-07-13T12:45:39;23.23;;;4.93;;
5754;SDS011;2902;42.130;24.732;2023-07-13T12:48:21;7.60;;;4.05;;
5754;SDS011;2902;42.130;24.732;2023-07-13T12:50:49;30.90;;;5.43;;
5754;SDS011;2902;42.130;24.732;2023-07-13T12:53:17;7.30;;;4.60;;
5754;SDS011;2902;42.130;24.732;2023-07-13T12:55:47;5.85;;;5.50;;
5754;SDS011;2902;42.130;24.732;2023-07-13T12:58:17;6.18;;;4.57;;
5754;SDS011;2902;42.130;24.732;2023-07-13T13:00:50;5.40;;;4.82;;
5754;SDS011;2902;42.130;24.732;2023-07-13T13:03:21;8.25;;;5.30;;
5754;SDS011;2902;42.130;24.732;2023-07-13T13:05:56;18.25;;;6.65;;
5754;SDS011;2902;42.130;24.732;2023-07-13T13:08:24;7.22;;;5.22;;
5754;SDS011;2902;42.130;24.732;2023-07-13T13:10:51;9.20;;;5.43;;
5754;SDS011;2902;42.130;24.732;2023-07-13T13:13:18;9.88;;;5.28;;
5754;SDS011;2902;42.130;24.732;2023-07-13T13:15:44;7.82;;;5.40;;
5754;SDS011;2902;42.130;24.732;2023-07-13T13:18:16;7.25;;;4.88;;
5754;SDS011;2902;42.130;24.732;2023-07-13T13:20:44;8.63;;;5.25;;
5754;SDS011;2902;42.130;24.732;2023-07-13T13:23:12;6.32;;;4.70;;
5754;SDS011;2902;42.130;24.732;2023-07-13T13:25:42;8.80;;;4.85;;
5754;SDS011;2902;42.130;24.732;2023-07-13T13:28:12;18.63;;;5.93;;
5754;SDS011;2902;42.130;24.732;2023-07-13T13:30:41;10.73;;;4.93;;
5754;SDS011;2902;42.130;24.732;2023-07-13T13:33:09;10.85;;;5.00;;
5754;SDS011;2902;42.130;24.732;2023-07-13T13:35:39;8.45;;;4.72;;
5754;SDS011;2902;42.130;24.732;2023-07-13T13:38:11;11.55;;;4.45;;
5754;SDS011;2902;42.130;24.732;2023-07-13T13:40:39;14.68;;;4.93;;
5754;SDS011;2902;42.130;24.732;2023-07-13T13:45:53;10.32;;;4.55;;
5754;SDS011;2902;42.130;24.732;2023-07-13T13:48:25;8.57;;;5.10;;
5754;SDS011;2902;42.130;24.732;2023-07-13T13:50:57;12.68;;;4.45;;
5754;SDS011;2902;42.130;24.732;2023-07-13T13:53:25;18.17;;;5.03;;
5754;SDS011;2902;42.130;24.732;2023-07-13T13:55:52;25.67;;;5.28;;
5754;SDS011;2902;42.130;24.732;2023-07-13T13:58:19;8.70;;;4.22;;
5754;SDS011;2902;42.130;24.732;2023-07-13T14:00:47;22.40;;;4.90;;
5754;SDS011;2902;42.130;24.732;2023-07-13T14:03:15;9.98;;;4.43;;
5754;SDS011;2902;42.130;24.732;2023-07-13T14:05:44;12.68;;;4.82;;
5754;SDS011;2902;42.130;24.732;2023-07-13T14:08:14;14.82;;;5.00;;
5754;SDS011;2902;42.130;24.732;2023-07-13T14:10:41;9.18;;;5.45;;
5754;SDS011;2902;42.130;24.732;2023-07-13T14:13:13;9.07;;;5.60;;
5754;SDS011;2902;42.130;24.732;2023-07-13T14:15:44;8.65;;;4.80;;
5754;SDS011;2902;42.130;24.732;2023-07-13T14:18:11;12.50;;;5.40;;
5754;SDS011;2902;42.130;24.732;2023-07-13T14:20:42;8.75;;;5.72;;
5754;SDS011;2902;42.130;24.732;2023-07-13T14:23:09;10.88;;;5.45;;
5754;SDS011;2902;42.130;24.732;2023-07-13T14:25:37;13.57;;;5.38;;
5754;SDS011;2902;42.130;24.732;2023-07-13T14:28:17;12.00;;;5.97;;
5754;SDS011;2902;42.130;24.732;2023-07-13T14:30:46;7.82;;;5.18;;
5754;SDS011;2902;42.130;24.732;2023-07-13T14:33:14;9.57;;;5.28;;
5754;SDS011;2902;42.130;24.732;2023-07-13T14:35:40;10.15;;;5.80;;
5754;SDS011;2902;42.130;24.732;2023-07-13T14:38:09;12.43;;;4.85;;
5754;SDS011;2902;42.130;24.732;2023-07-13T14:40:39;7.07;;;4.85;;
5754;SDS011;2902;42.130;24.732;2023-07-13T14:43:07;9.60;;;6.03;;
5754;SDS011;2902;42.130;24.732;2023-07-13T14:45:37;9.23;;;5.43;;
5754;SDS011;2902;42.130;24.732;2023-07-13T14:48:10;10.80;;;5.45;;
5754;SDS011;2902;42.130;24.732;2023-07-13T14:50:40;10.75;;;5.47;;
5754;SDS011;2902;42.130;24.732;2023-07-13T14:53:09;6.10;;;5.07;;
5754;SDS011;2902;42.130;24.732;2023-07-13T14:55:37;11.10;;;5.07;;
5754;SDS011;2902;42.130;24.732;2023-07-13T14:58:05;14.00;;;5.72;;
5754;SDS011;2902;42.130;24.732;2023-07-13T15:00:32;9.63;;;5.35;;
5754;SDS011;2902;42.130;24.732;2023-07-13T15:02:59;14.98;;;6.10;;
5754;SDS011;2902;42.130;24.732;2023-07-13T15:05:29;15.20;;;5.28;;
5754;SDS011;2902;42.130;24.732;2023-07-13T15:07:59;11.30;;;5.68;;
5754;SDS011;2902;42.130;24.732;2023-07-13T15:10:29;11.75;;;6.43;;
5754;SDS011;2902;42.130;24.732;2023-07-13T15:12:59;12.70;;;6.85;;
5754;SDS011;2902;42.130;24.732;2023-07-13T15:15:29;7.60;;;5.20;;